Terminal Aerodrome Forecast
Issued by NWS

Home | Current Version | Previous Version | Text Only | Print | Product List | Glossary On
Versions: 1 2 3 4 5 6 7 8 9 10 11 12 13 14 15 16 17 18 19 20 21 22
000
FTUS43 KILX 270500
TAFCMI
TAF
KCMI 270538Z 2706/2806 17009KT P6SM -RADZ BKN035 OVC050
      WS020/22040KT
     FM270700 18011KT 6SM -RADZ BR OVC025 WS020/22035KT
      TEMPO 2712/2715 -RA OVC008
     FM271500 19011KT 5SM -RA BR OVC006
     FM271800 22013KT P6SM VCSH OVC008
     FM272100 27014KT P6SM OVC020
     FM280000 29010KT P6SM SCT020 OVC120=

USA.gov is the U.S. government's official web portal to all federal, state and local government web resources and services.